Mazatenango, Guatemala
Current Conditions -  °F | °C
As of 3:00 PM on Saturday 22 Nov 2014 (Local Time) from MGSJ Reporting Station
Broken Clouds Broken Clouds  
Wind Chill: 90°   Ceiling: 20000
Heat Index: 100°   Visibility: 6mi
Dew Point: 75°   Wind: 9mph
Humidity: 62%   Direction: 220°SW
Pressure: 29.83"   Gusts: NA
Location:  14.31°N, 91.3°W
Report Text: MGSJ 222100Z 22008KT 9000 BKN200 32/24 Q1010 A2983 FU
Loading
Personal Weather Stations






























Interactive Weather Map New forecast layout! Learn more

10-Day Weather Forecast

Advertisements
Track Severe Weather on mobile